createdAt,value
2022-10-23T00:03:10.435Z,32.13
2022-10-23T00:08:12.834Z,31.50
2022-10-23T00:13:15.121Z,29.73
2022-10-23T00:18:17.419Z,29.53
2022-10-23T00:23:19.734Z,29.40
2022-10-23T00:28:22.031Z,29.83
2022-10-23T00:33:24.348Z,29.60
2022-10-23T00:38:26.717Z,27.10
2022-10-23T00:43:30.862Z,26.73
2022-10-23T00:48:33.462Z,26.83
2022-10-23T00:53:35.762Z,26.07
2022-10-23T00:58:38.101Z,29.83
2022-10-23T01:03:40.401Z,29.67
2022-10-23T01:08:59.999Z,28.93
2022-10-23T01:14:23.435Z,28.90
2022-10-23T01:19:59.821Z,26.20
2022-10-23T01:25:23.792Z,25.83
2022-10-23T01:30:26.389Z,26.10
2022-10-23T01:35:40.657Z,27.40
2022-10-23T01:41:02.896Z,29.40
2022-10-23T01:46:10.615Z,31.23
2022-10-23T01:51:16.808Z,32.90
2022-10-23T01:56:25.346Z,32.30
2022-10-23T02:01:30.681Z,31.77
2022-10-23T02:06:33.197Z,28.00
2022-10-23T02:11:42.819Z,29.80
2022-10-23T02:16:52.773Z,28.00
2022-10-23T02:22:24.601Z,25.87
2022-10-23T02:27:36.172Z,25.93
2022-10-23T02:32:43.836Z,26.17
2022-10-23T02:37:59.066Z,24.87
2022-10-23T02:43:14.811Z,24.40
2022-10-23T02:48:33.760Z,22.97
2022-10-23T02:53:52.948Z,21.87
2022-10-23T02:59:01.515Z,19.83
2022-10-23T03:04:06.780Z,20.00
2022-10-23T03:09:09.845Z,20.00
2022-10-23T03:14:14.369Z,19.80
2022-10-23T03:19:16.772Z,19.23
2022-10-23T03:24:19.131Z,17.50
2022-10-23T03:29:21.851Z,18.23
2022-10-23T03:34:25.971Z,93.47
2022-10-23T03:39:29.154Z,22.67
2022-10-23T03:44:34.113Z,23.37
2022-10-23T03:49:36.838Z,24.57
2022-10-23T03:54:41.867Z,21.60
2022-10-23T03:59:46.158Z,19.37
2022-10-23T04:04:48.725Z,19.43
2022-10-23T04:09:51.239Z,22.40
2022-10-23T04:14:53.757Z,22.47
2022-10-23T04:19:57.414Z,31.10
2022-10-23T04:24:59.821Z,23.70
2022-10-23T04:30:03.756Z,28.57
2022-10-23T04:35:07.080Z,27.53
2022-10-23T04:40:10.061Z,25.80
2022-10-23T04:45:13.810Z,28.50
2022-10-23T04:50:17.827Z,25.27
2022-10-23T04:55:38.613Z,25.23
2022-10-23T05:00:56.838Z,25.80
2022-10-23T05:06:01.467Z,26.80
2022-10-23T05:11:14.640Z,24.03
2022-10-23T05:16:43.948Z,30.03
2022-10-23T05:21:49.685Z,26.87
2022-10-23T05:26:54.836Z,31.47
2022-10-23T05:32:02.818Z,24.20
2022-10-23T05:37:09.099Z,26.73
2022-10-23T05:42:16.176Z,26.80
2022-10-23T05:47:18.592Z,26.60
2022-10-23T05:52:41.423Z,28.67
2022-10-23T05:57:49.905Z,26.63
2022-10-23T06:03:00.701Z,27.70
2022-10-23T06:08:13.980Z,27.90
2022-10-23T06:13:17.245Z,24.47
2022-10-23T06:18:19.626Z,27.27
2022-10-23T06:23:39.135Z,24.87
2022-10-23T06:28:53.234Z,24.87
2022-10-23T06:33:56.229Z,24.43
2022-10-23T06:44:22.167Z,22.23
2022-10-23T06:49:29.821Z,23.87
2022-10-23T06:54:34.062Z,24.47
2022-10-23T07:00:00.950Z,22.20
2022-10-23T07:05:04.034Z,21.50
2022-10-23T07:10:07.122Z,22.93
2022-10-23T07:15:17.967Z,22.07
2022-10-23T07:20:20.773Z,22.00
2022-10-23T07:25:26.673Z,25.10
2022-10-23T07:30:29.376Z,25.60
2022-10-23T07:35:35.571Z,24.80
2022-10-23T07:40:45.473Z,28.30
2022-10-23T07:45:50.774Z,21.87
2022-10-23T07:51:12.223Z,22.70
2022-10-23T07:56:26.261Z,22.73
2022-10-23T08:01:51.519Z,23.07
2022-10-23T08:06:56.886Z,24.47
2022-10-23T08:12:01.784Z,23.97
2022-10-23T08:17:09.889Z,21.53
2022-10-23T08:22:30.733Z,29.77
2022-10-23T08:27:33.922Z,22.27
2022-10-23T08:32:36.410Z,22.67
2022-10-23T08:37:41.507Z,23.10
2022-10-23T08:42:53.439Z,20.00
2022-10-23T08:48:01.843Z,20.97
2022-10-23T08:54:01.832Z,22.37
2022-10-23T08:59:32.940Z,32.87
2022-10-23T09:04:35.458Z,23.20
2022-10-23T09:09:52.696Z,22.30
2022-10-23T09:14:57.689Z,23.13
2022-10-23T09:20:05.313Z,20.80
2022-10-23T09:25:17.435Z,22.47
2022-10-23T09:30:32.829Z,19.73
2022-10-23T09:35:35.099Z,21.57
2022-10-23T09:40:43.602Z,21.33
2022-10-23T09:45:58.059Z,24.80
2022-10-23T09:51:20.900Z,20.40
2022-10-23T09:56:36.436Z,19.17
2022-10-23T10:01:54.625Z,26.97
2022-10-23T10:07:21.151Z,18.77
2022-10-23T10:12:26.246Z,19.17
2022-10-23T10:17:53.481Z,17.67
2022-10-23T10:23:22.526Z,16.13
2022-10-23T10:28:32.273Z,13.00
2022-10-23T10:34:03.955Z,13.20
2022-10-23T10:39:19.422Z,14.17
2022-10-23T10:44:32.393Z,13.63
2022-10-23T10:50:02.438Z,11.67
2022-10-23T10:55:32.047Z,12.30
2022-10-23T11:00:35.534Z,12.60
2022-10-23T11:05:47.328Z,10.27
2022-10-23T11:10:54.428Z,9.00
2022-10-23T11:16:01.743Z,10.67
2022-10-23T11:21:19.324Z,10.30
2022-10-23T11:27:10.945Z,8.67
2022-10-23T11:32:40.668Z,7.27
2022-10-23T11:37:43.261Z,8.03
2022-10-23T11:42:48.107Z,7.87
2022-10-23T11:48:02.454Z,9.57
2022-10-23T11:53:23.258Z,8.30
2022-10-23T11:58:32.107Z,8.27
2022-10-23T12:03:49.671Z,10.43
2022-10-23T12:08:56.339Z,9.87
2022-10-23T12:13:58.663Z,10.27
2022-10-23T12:19:19.211Z,9.87
2022-10-23T12:24:39.864Z,9.90
2022-10-23T12:29:53.287Z,17.97
2022-10-23T12:35:25.505Z,7.63
2022-10-23T12:40:30.136Z,6.57
2022-10-23T12:45:38.553Z,8.00
2022-10-23T12:50:40.913Z,11.00
2022-10-23T12:55:55.969Z,6.57
2022-10-23T13:01:04.067Z,16.80
2022-10-23T13:06:06.829Z,8.80
2022-10-23T13:11:17.993Z,6.93
2022-10-23T13:16:23.020Z,8.07
2022-10-23T13:21:29.577Z,5.80
2022-10-23T13:26:45.125Z,7.10
2022-10-23T13:31:48.714Z,5.17
2022-10-23T13:36:56.213Z,5.23
2022-10-23T13:42:11.014Z,5.87
2022-10-23T13:47:14.440Z,5.40
2022-10-23T13:52:22.195Z,6.33
2022-10-23T13:57:24.468Z,9.50
2022-10-23T14:02:26.791Z,6.87
2022-10-23T14:07:29.132Z,8.00
2022-10-23T14:12:31.480Z,6.00
2022-10-23T14:17:35.148Z,6.43
2022-10-23T14:22:37.456Z,6.70
2022-10-23T14:27:39.703Z,8.43
2022-10-23T14:32:42.631Z,7.43
2022-10-23T14:37:45.513Z,7.57
2022-10-23T14:42:48.230Z,6.83
2022-10-23T14:47:50.632Z,11.07
2022-10-23T14:52:53.310Z,13.87
2022-10-23T14:57:56.262Z,18.83
2022-10-23T15:02:58.611Z,31.70
2022-10-23T15:08:01.723Z,17.87
2022-10-23T15:13:04.086Z,16.37
2022-10-23T15:18:06.663Z,19.87
2022-10-23T15:23:08.993Z,21.67
2022-10-23T15:28:11.273Z,18.37
2022-10-23T15:33:17.721Z,22.27
2022-10-23T15:38:22.871Z,47.67
2022-10-23T15:43:25.141Z,34.60
2022-10-23T15:48:27.498Z,32.33
2022-10-23T15:53:29.833Z,32.90
2022-10-23T15:58:32.134Z,25.77
2022-10-23T16:03:36.089Z,28.73
2022-10-23T16:08:39.306Z,33.63
2022-10-23T16:13:42.888Z,33.33
2022-10-23T16:18:46.451Z,36.43
2022-10-23T16:23:49.618Z,32.10
2022-10-23T16:28:59.979Z,28.83
2022-10-23T16:34:03.197Z,32.50
2022-10-23T16:39:07.293Z,33.60
2022-10-23T16:44:29.797Z,38.17
2022-10-23T16:49:34.433Z,33.00
2022-10-23T16:54:36.829Z,44.50
2022-10-23T16:59:39.118Z,40.63
2022-10-23T17:04:41.393Z,46.27
2022-10-23T17:09:47.236Z,39.87
2022-10-23T17:14:49.549Z,39.87
2022-10-23T17:19:51.815Z,37.00
2022-10-23T17:24:54.331Z,39.80
2022-10-23T17:29:56.838Z,43.10
2022-10-23T17:34:59.123Z,42.30
2022-10-23T17:40:02.609Z,35.70
2022-10-23T17:45:05.306Z,34.40
2022-10-23T17:50:09.519Z,44.40
2022-10-23T17:55:11.832Z,49.70
2022-10-23T18:00:14.347Z,64.90
2022-10-23T18:05:16.680Z,70.63
2022-10-23T18:10:19.214Z,94.57
2022-10-23T18:15:21.569Z,85.90
2022-10-23T18:20:23.853Z,78.43
2022-10-23T18:25:26.127Z,78.70
2022-10-23T18:30:28.592Z,82.10
2022-10-23T18:35:35.036Z,82.30
2022-10-23T18:40:38.778Z,65.47
2022-10-23T18:45:42.626Z,81.53
2022-10-23T18:50:44.876Z,61.50
2022-10-23T18:55:49.418Z,69.43
2022-10-23T19:00:51.744Z,77.77
2022-10-23T19:05:54.030Z,76.50
2022-10-23T19:11:00.176Z,84.17
2022-10-23T19:16:23.024Z,86.87
2022-10-23T19:21:31.374Z,74.73
2022-10-23T19:26:35.850Z,78.70
2022-10-23T19:31:38.973Z,87.00
2022-10-23T19:36:41.248Z,83.30
2022-10-23T19:41:43.813Z,82.13
2022-10-23T19:46:46.669Z,79.97
2022-10-23T19:51:51.221Z,85.47
2022-10-23T19:56:53.743Z,61.93
2022-10-23T20:01:56.242Z,85.40
2022-10-23T20:06:58.659Z,66.47
2022-10-23T20:12:01.423Z,57.10
2022-10-23T20:17:03.866Z,39.87
2022-10-23T20:22:08.808Z,46.53
2022-10-23T20:27:13.765Z,53.43
2022-10-23T20:32:16.737Z,58.53
2022-10-23T20:37:19.051Z,61.03
2022-10-23T20:42:21.459Z,76.37
2022-10-23T20:47:23.997Z,63.73
2022-10-23T20:52:29.433Z,39.80
2022-10-23T20:57:31.810Z,35.17
2022-10-23T21:02:34.188Z,39.57
2022-10-23T21:07:36.520Z,38.90
2022-10-23T21:12:38.782Z,37.83
2022-10-23T21:17:41.314Z,35.30
2022-10-23T21:22:44.159Z,37.77
2022-10-23T21:27:46.957Z,35.93
2022-10-23T21:32:49.361Z,32.93
2022-10-23T21:37:51.640Z,30.07
2022-10-23T21:42:54.684Z,28.93
2022-10-23T21:47:56.944Z,34.10
2022-10-23T21:52:59.237Z,31.70
2022-10-23T21:58:01.483Z,28.50
2022-10-23T22:03:03.875Z,27.90
2022-10-23T22:08:06.156Z,27.53
2022-10-23T22:13:08.494Z,28.80
2022-10-23T22:18:10.763Z,25.67
2022-10-23T22:23:13.064Z,25.53
2022-10-23T22:28:15.325Z,24.57
2022-10-23T22:33:17.580Z,27.93
2022-10-23T22:38:19.843Z,27.37
2022-10-23T22:43:22.161Z,29.07
2022-10-23T22:48:24.417Z,28.30
2022-10-23T22:53:27.139Z,27.73
2022-10-23T22:58:29.411Z,28.23
2022-10-23T23:03:31.917Z,27.67
2022-10-23T23:08:35.304Z,27.00
2022-10-23T23:13:37.674Z,38.23
2022-10-23T23:18:39.930Z,29.00
2022-10-23T23:23:42.373Z,27.07
2022-10-23T23:28:46.257Z,30.43
2022-10-23T23:33:49.159Z,31.67
2022-10-23T23:38:52.224Z,32.20
2022-10-23T23:43:56.386Z,31.17
2022-10-23T23:48:58.633Z,46.20
2022-10-23T23:54:00.948Z,37.30
2022-10-23T23:59:03.306Z,33.50
